createdAt,value
2022-12-12T00:02:21.865Z,12.10
2022-12-12T00:05:00.333Z,12.23
2022-12-12T00:07:30.772Z,12.13
2022-12-12T00:09:58.657Z,11.60
2022-12-12T00:12:26.519Z,12.30
2022-12-12T00:14:54.414Z,13.70
2022-12-12T00:17:22.287Z,13.37
2022-12-12T00:19:50.231Z,13.07
2022-12-12T00:22:19.531Z,13.43
2022-12-12T00:24:47.507Z,12.60
2022-12-12T00:27:15.542Z,13.63
2022-12-12T00:29:43.480Z,13.77
2022-12-12T00:32:11.547Z,14.00
2022-12-12T00:34:39.385Z,13.63
2022-12-12T00:37:07.266Z,13.40
2022-12-12T00:39:36.555Z,14.47
2022-12-12T00:42:04.842Z,14.47
2022-12-12T00:44:32.806Z,14.27
2022-12-12T00:47:00.678Z,13.67
2022-12-12T00:49:28.522Z,13.47
2022-12-12T00:51:56.468Z,14.17
2022-12-12T00:54:25.486Z,13.83
2022-12-12T00:56:54.719Z,13.87
2022-12-12T00:59:22.832Z,13.37
2022-12-12T01:01:50.797Z,13.73
2022-12-12T01:04:18.841Z,13.00
2022-12-12T01:06:46.712Z,12.30
2022-12-12T01:09:15.419Z,11.30
2022-12-12T01:11:43.275Z,9.77
2022-12-12T01:14:12.514Z,10.87
2022-12-12T01:16:40.720Z,11.33
2022-12-12T01:19:08.778Z,10.90
2022-12-12T01:21:37.927Z,12.23
2022-12-12T01:24:06.288Z,12.20
2022-12-12T01:26:34.192Z,12.40
2022-12-12T01:29:02.627Z,12.03
2022-12-12T01:31:31.909Z,11.87
2022-12-12T01:33:59.858Z,11.57
2022-12-12T01:36:27.783Z,11.60
2022-12-12T01:38:57.130Z,10.60
2022-12-12T01:41:25.254Z,10.63
2022-12-12T01:43:53.390Z,10.50
2022-12-12T01:46:40.587Z,10.33
2022-12-12T01:49:19.214Z,10.23
2022-12-12T01:51:48.934Z,9.90
2022-12-12T01:54:20.896Z,10.60
2022-12-12T01:56:50.589Z,9.63
2022-12-12T01:59:22.204Z,9.10
2022-12-12T02:01:52.071Z,9.67
2022-12-12T02:04:20.933Z,10.10
2022-12-12T02:06:50.131Z,9.30
2022-12-12T02:09:20.072Z,10.13
2022-12-12T02:11:49.769Z,11.13
2022-12-12T02:14:21.291Z,11.13
2022-12-12T02:17:05.626Z,10.47
2022-12-12T02:20:12.178Z,9.43
2022-12-12T02:23:02.177Z,9.13
2022-12-12T02:25:47.814Z,9.70
2022-12-12T02:28:34.850Z,8.83
2022-12-12T02:31:16.497Z,8.47
2022-12-12T02:33:54.345Z,8.27
2022-12-12T02:36:31.295Z,8.63
2022-12-12T02:39:08.926Z,8.87
2022-12-12T02:41:40.311Z,8.83
2022-12-12T02:44:16.651Z,8.43
2022-12-12T02:46:52.917Z,8.70
2022-12-12T02:49:24.036Z,8.23
2022-12-12T02:51:53.066Z,8.17
2022-12-12T02:54:23.337Z,8.53
2022-12-12T02:56:56.313Z,8.23
2022-12-12T02:59:27.807Z,8.63
2022-12-12T03:02:30.754Z,7.77
2022-12-12T03:05:44.350Z,8.03
2022-12-12T03:08:24.966Z,7.87
2022-12-12T03:10:58.507Z,8.40
2022-12-12T03:13:34.925Z,7.97
2022-12-12T03:16:14.425Z,8.00
2022-12-12T03:18:52.879Z,7.87
2022-12-12T03:21:24.651Z,7.63
2022-12-12T03:23:58.100Z,8.00
2022-12-12T03:26:31.184Z,7.60
2022-12-12T03:29:06.990Z,6.83
2022-12-12T03:31:39.701Z,8.10
2022-12-12T03:34:15.978Z,7.83
2022-12-12T03:36:49.831Z,7.90
2022-12-12T03:39:24.608Z,7.50
2022-12-12T03:41:57.878Z,7.60
2022-12-12T03:44:30.121Z,7.93
2022-12-12T03:47:03.260Z,8.33
2022-12-12T03:49:37.895Z,8.00
2022-12-12T03:52:10.859Z,7.50
2022-12-12T03:54:45.112Z,7.97
2022-12-12T03:57:17.771Z,8.43
2022-12-12T03:59:50.746Z,7.30
2022-12-12T04:02:23.876Z,8.27
2022-12-12T04:05:01.895Z,8.70
2022-12-12T04:07:33.203Z,8.37
2022-12-12T04:10:19.298Z,8.27
2022-12-12T04:13:03.462Z,8.13
2022-12-12T04:16:03.975Z,8.57
2022-12-12T04:18:38.043Z,7.90
2022-12-12T04:21:35.701Z,8.27
2022-12-12T04:24:12.382Z,8.30
2022-12-12T04:26:45.449Z,8.53
2022-12-12T04:29:28.600Z,8.57
2022-12-12T04:32:00.695Z,8.83
2022-12-12T04:34:39.008Z,8.90
2022-12-12T04:37:12.407Z,9.80
2022-12-12T04:39:41.948Z,9.77
2022-12-12T04:42:14.081Z,9.23
2022-12-12T04:44:44.507Z,9.97
2022-12-12T04:47:14.601Z,9.10
2022-12-12T04:49:44.501Z,11.00
2022-12-12T04:52:16.387Z,11.40
2022-12-12T04:54:48.814Z,10.17
2022-12-12T04:57:21.133Z,10.20
2022-12-12T04:59:50.044Z,10.90
2022-12-12T05:02:25.652Z,10.77
2022-12-12T05:04:58.715Z,10.87
2022-12-12T05:07:39.509Z,11.40
2022-12-12T05:10:11.722Z,11.00
2022-12-12T05:12:46.235Z,11.47
2022-12-12T05:15:15.363Z,11.87
2022-12-12T05:17:45.618Z,11.80
2022-12-12T05:20:14.187Z,11.87
2022-12-12T05:22:43.471Z,10.63
2022-12-12T05:25:13.324Z,10.77
2022-12-12T05:27:41.479Z,11.53
2022-12-12T05:30:11.417Z,12.53
2022-12-12T05:32:39.369Z,12.13
2022-12-12T05:35:09.078Z,13.20
2022-12-12T05:37:37.289Z,12.20
2022-12-12T05:40:08.324Z,13.20
2022-12-12T05:42:36.229Z,13.17
2022-12-12T05:45:05.088Z,12.50
2022-12-12T05:47:32.977Z,13.97
2022-12-12T05:50:01.026Z,12.83
2022-12-12T05:52:28.948Z,15.10
2022-12-12T05:54:56.804Z,14.30
2022-12-12T05:57:26.177Z,14.63
2022-12-12T05:59:54.064Z,17.23
2022-12-12T06:02:22.023Z,15.23
2022-12-12T06:04:49.871Z,16.63
2022-12-12T06:07:18.469Z,18.03
2022-12-12T06:09:46.513Z,24.83
2022-12-12T06:12:14.386Z,14.87
2022-12-12T06:14:43.614Z,14.20
2022-12-12T06:17:11.503Z,18.73
2022-12-12T06:19:39.380Z,15.73
2022-12-12T06:22:07.424Z,17.27
2022-12-12T06:24:35.268Z,18.17
2022-12-12T06:27:03.152Z,14.77
2022-12-12T06:29:31.095Z,14.00
2022-12-12T06:32:00.314Z,14.00
2022-12-12T06:34:28.384Z,13.80
2022-12-12T06:36:56.253Z,14.00
2022-12-12T06:39:24.111Z,13.43
2022-12-12T06:41:52.035Z,14.50
2022-12-12T06:44:19.897Z,14.33
2022-12-12T06:46:47.891Z,14.33
2022-12-12T06:49:17.280Z,14.27
2022-12-12T06:51:45.331Z,14.03
2022-12-12T06:54:14.210Z,14.47
2022-12-12T06:56:48.040Z,13.90
2022-12-12T06:59:16.923Z,13.53
2022-12-12T07:01:45.125Z,14.33
2022-12-12T07:04:15.233Z,14.67
2022-12-12T07:06:46.846Z,14.43
2022-12-12T07:09:15.393Z,13.87
2022-12-12T07:11:44.018Z,13.53
2022-12-12T07:14:12.428Z,13.63
2022-12-12T07:16:40.554Z,14.50
2022-12-12T07:19:08.839Z,14.90
2022-12-12T07:21:37.656Z,13.70
2022-12-12T07:24:07.455Z,14.47
2022-12-12T07:26:35.472Z,14.73
2022-12-12T07:29:05.262Z,13.93
2022-12-12T07:31:33.865Z,13.97
2022-12-12T07:34:02.046Z,12.83
2022-12-12T07:36:30.093Z,14.13
2022-12-12T07:38:59.018Z,13.90
2022-12-12T07:41:29.457Z,13.97
2022-12-12T07:44:01.536Z,14.07
2022-12-12T07:46:30.392Z,14.03
2022-12-12T07:48:58.459Z,14.07
2022-12-12T07:51:26.488Z,14.37
2022-12-12T07:53:54.473Z,13.37
2022-12-12T07:56:22.947Z,12.77
2022-12-12T07:58:53.476Z,13.40
2022-12-12T08:01:23.150Z,14.17
2022-12-12T08:03:51.996Z,14.30
2022-12-12T08:06:21.837Z,14.27
2022-12-12T08:08:50.906Z,14.37
2022-12-12T08:11:21.456Z,13.87
2022-12-12T08:13:49.680Z,15.43
2022-12-12T08:16:21.037Z,13.30
2022-12-12T08:18:49.849Z,15.87
2022-12-12T08:21:25.209Z,16.10
2022-12-12T08:23:57.067Z,16.27
2022-12-12T08:26:25.923Z,14.63
2022-12-12T08:28:53.815Z,13.17
2022-12-12T08:31:23.638Z,14.03
2022-12-12T08:33:53.047Z,13.00
2022-12-12T08:36:23.487Z,12.63
2022-12-12T08:38:51.641Z,12.83
2022-12-12T08:41:20.492Z,13.17
2022-12-12T08:43:49.035Z,12.90
2022-12-12T08:46:18.832Z,12.93
2022-12-12T08:48:49.027Z,14.40
2022-12-12T08:51:18.320Z,13.23
2022-12-12T08:53:46.839Z,12.43
2022-12-12T08:56:15.126Z,12.43
2022-12-12T08:58:44.553Z,13.00
2022-12-12T09:01:12.650Z,13.10
2022-12-12T09:03:40.797Z,13.60
2022-12-12T09:06:11.254Z,13.67
2022-12-12T09:08:39.994Z,13.87
2022-12-12T09:11:08.667Z,13.30
2022-12-12T09:13:37.136Z,13.57
2022-12-12T09:16:06.447Z,12.80
2022-12-12T09:18:35.208Z,13.60
2022-12-12T09:21:03.562Z,13.83
2022-12-12T09:23:33.016Z,13.47
2022-12-12T09:26:05.841Z,14.07
2022-12-12T09:28:34.232Z,13.63
2022-12-12T09:31:04.744Z,13.37
2022-12-12T09:33:32.815Z,14.47
2022-12-12T09:36:07.081Z,12.93
2022-12-12T09:38:37.423Z,13.17
2022-12-12T09:41:12.455Z,13.57
2022-12-12T09:43:47.355Z,14.37
2022-12-12T09:46:21.795Z,13.97
2022-12-12T09:48:49.747Z,13.93
2022-12-12T09:51:17.995Z,13.20
2022-12-12T09:53:48.139Z,14.33
2022-12-12T09:56:22.429Z,14.10
2022-12-12T09:58:57.153Z,14.13
2022-12-12T10:01:30.873Z,13.97
2022-12-12T10:04:10.425Z,13.73
2022-12-12T10:06:44.813Z,13.07
2022-12-12T10:09:35.729Z,13.63
2022-12-12T10:12:08.522Z,13.57
2022-12-12T10:14:39.723Z,13.33
2022-12-12T10:17:12.473Z,14.07
2022-12-12T10:19:48.530Z,13.03
2022-12-12T10:22:24.644Z,14.23
2022-12-12T10:24:57.809Z,13.23
2022-12-12T10:27:26.079Z,13.97
2022-12-12T10:29:54.939Z,13.23
2022-12-12T10:32:34.924Z,13.30
2022-12-12T10:35:18.902Z,13.43
2022-12-12T10:38:01.105Z,12.93
2022-12-12T10:40:42.591Z,12.33
2022-12-12T10:43:18.966Z,12.27
2022-12-12T10:46:05.510Z,12.53
2022-12-12T10:48:34.529Z,12.77
2022-12-12T10:51:05.029Z,12.87
2022-12-12T10:53:33.579Z,12.33
2022-12-12T10:56:06.631Z,12.03
2022-12-12T10:58:38.945Z,11.80
2022-12-12T11:01:13.710Z,12.67
2022-12-12T11:03:46.702Z,11.53
2022-12-12T11:06:18.919Z,11.13
2022-12-12T11:08:55.119Z,10.77
2022-12-12T11:11:26.961Z,10.20
2022-12-12T11:14:00.523Z,10.40
2022-12-12T11:16:30.274Z,11.20
2022-12-12T11:19:04.353Z,10.57
2022-12-12T11:21:35.189Z,10.30
2022-12-12T11:24:08.575Z,11.37
2022-12-12T11:26:45.863Z,10.37
2022-12-12T11:29:32.330Z,10.43
2022-12-12T11:32:01.268Z,9.83
2022-12-12T11:34:30.181Z,11.17
2022-12-12T11:37:00.305Z,9.30
2022-12-12T11:39:35.084Z,9.43
2022-12-12T11:42:06.639Z,9.23
2022-12-12T11:44:36.999Z,9.97
2022-12-12T11:47:23.572Z,9.90
2022-12-12T11:49:53.339Z,8.97
2022-12-12T11:52:22.887Z,9.63
2022-12-12T11:54:52.648Z,8.57
2022-12-12T11:57:42.380Z,7.43
2022-12-12T12:00:15.819Z,7.77
2022-12-12T12:03:13.566Z,7.43
2022-12-12T12:05:53.726Z,7.40
2022-12-12T12:08:36.225Z,7.87
2022-12-12T12:11:17.710Z,8.63
2022-12-12T12:14:12.361Z,8.70
2022-12-12T12:16:48.682Z,9.13
2022-12-12T12:19:23.178Z,8.73
2022-12-12T12:22:01.328Z,12.50
2022-12-12T12:24:53.876Z,14.20
2022-12-12T12:27:30.119Z,14.27
2022-12-12T12:30:14.501Z,15.17
2022-12-12T12:32:56.095Z,15.63
2022-12-12T12:35:30.728Z,15.03
2022-12-12T12:38:15.687Z,16.83
2022-12-12T12:40:57.300Z,15.50
2022-12-12T12:43:41.463Z,15.60
2022-12-12T12:46:16.649Z,15.10
2022-12-12T12:48:49.201Z,16.57
2022-12-12T12:51:21.552Z,15.20
2022-12-12T12:53:54.001Z,15.47
2022-12-12T12:56:26.500Z,16.10
2022-12-12T12:58:59.117Z,15.83
2022-12-12T13:01:34.859Z,16.87
2022-12-12T13:04:09.122Z,16.00
2022-12-12T13:06:43.304Z,15.77
2022-12-12T13:09:22.111Z,17.40
2022-12-12T13:11:54.763Z,15.40
2022-12-12T13:14:30.355Z,15.53
2022-12-12T13:17:06.302Z,14.73
2022-12-12T13:19:38.776Z,14.07
2022-12-12T13:22:14.654Z,15.13
2022-12-12T13:24:53.643Z,14.20
2022-12-12T13:27:30.754Z,14.40
2022-12-12T13:30:03.864Z,14.10
2022-12-12T13:33:03.738Z,14.33
2022-12-12T13:35:34.393Z,13.77
2022-12-12T13:38:04.437Z,14.33
2022-12-12T13:40:36.540Z,15.60
2022-12-12T13:43:09.981Z,15.20
2022-12-12T13:45:42.740Z,14.43
2022-12-12T13:48:46.157Z,14.30
2022-12-12T13:51:35.665Z,13.77
2022-12-12T13:54:44.917Z,13.80
2022-12-12T13:57:15.438Z,13.40
2022-12-12T14:00:19.926Z,13.27
2022-12-12T14:03:02.079Z,13.33
2022-12-12T14:05:35.178Z,13.67
2022-12-12T14:08:08.390Z,14.30
2022-12-12T14:10:38.121Z,13.43
2022-12-12T14:13:42.881Z,14.43
2022-12-12T14:16:26.922Z,15.10
2022-12-12T14:19:01.901Z,14.00
2022-12-12T14:21:46.199Z,14.93
2022-12-12T14:24:56.938Z,16.47
2022-12-12T14:28:04.055Z,14.63
2022-12-12T14:30:49.390Z,14.93
2022-12-12T14:33:50.050Z,13.53
2022-12-12T14:36:51.166Z,13.77
2022-12-12T14:39:29.736Z,13.90
2022-12-12T14:41:58.216Z,13.73
2022-12-12T14:44:37.939Z,13.50
2022-12-12T14:47:08.868Z,13.23
2022-12-12T14:49:37.133Z,15.30
2022-12-12T14:52:06.708Z,19.80
2022-12-12T14:54:34.765Z,23.03
2022-12-12T14:57:03.251Z,24.97
2022-12-12T14:59:34.555Z,29.80
2022-12-12T15:02:16.025Z,17.33
2022-12-12T15:04:47.937Z,14.97
2022-12-12T15:07:26.554Z,14.37
2022-12-12T15:09:54.621Z,14.77
2022-12-12T15:12:25.299Z,14.07
2022-12-12T15:14:55.975Z,13.63
2022-12-12T15:17:27.807Z,12.83
2022-12-12T15:20:00.198Z,13.40
2022-12-12T15:22:31.541Z,13.10
2022-12-12T15:25:01.224Z,13.93
2022-12-12T15:27:31.974Z,13.23
2022-12-12T15:30:01.641Z,14.40
2022-12-12T15:32:30.124Z,14.13
2022-12-12T15:35:04.753Z,13.13
2022-12-12T15:37:34.717Z,14.30
2022-12-12T15:40:17.407Z,12.80
2022-12-12T15:42:49.253Z,12.57
2022-12-12T15:45:21.575Z,13.07
2022-12-12T15:47:51.615Z,12.63
2022-12-12T15:50:21.466Z,13.00
2022-12-12T15:53:02.199Z,12.93
2022-12-12T15:55:30.853Z,13.17
2022-12-12T15:57:59.168Z,12.50
2022-12-12T16:00:32.594Z,12.70
2022-12-12T16:03:03.366Z,12.70
2022-12-12T16:05:33.929Z,13.07
2022-12-12T16:08:32.017Z,13.53
2022-12-12T16:11:01.962Z,12.57
2022-12-12T16:13:37.224Z,14.20
2022-12-12T16:16:35.123Z,13.93
2022-12-12T16:19:04.545Z,15.20
2022-12-12T16:21:33.421Z,14.00
2022-12-12T16:24:13.371Z,13.70
2022-12-12T16:26:41.436Z,13.90
2022-12-12T16:29:09.313Z,12.83
2022-12-12T16:31:37.234Z,13.43
2022-12-12T16:34:05.618Z,13.60
2022-12-12T16:36:39.936Z,12.70
2022-12-12T16:39:13.730Z,14.13
2022-12-12T16:41:42.039Z,12.97
2022-12-12T16:44:09.923Z,13.67
2022-12-12T16:46:38.302Z,12.97
2022-12-12T16:49:09.380Z,13.53
2022-12-12T16:51:42.031Z,12.00
2022-12-12T16:54:16.920Z,12.80
2022-12-12T16:56:52.293Z,13.63
2022-12-12T16:59:20.319Z,13.07
2022-12-12T17:01:48.230Z,12.20
2022-12-12T17:04:21.926Z,12.93
2022-12-12T17:06:50.777Z,13.60
2022-12-12T17:09:21.515Z,12.87
2022-12-12T17:11:51.313Z,12.83
2022-12-12T17:14:23.247Z,13.20
2022-12-12T17:16:53.435Z,12.83
2022-12-12T17:19:21.471Z,12.33
2022-12-12T17:21:49.610Z,13.43
2022-12-12T17:24:17.533Z,14.27
2022-12-12T17:26:46.847Z,13.80
2022-12-12T17:29:14.719Z,12.60
2022-12-12T17:31:42.652Z,13.57
2022-12-12T17:34:11.909Z,11.37
2022-12-12T17:36:39.825Z,12.70
2022-12-12T17:39:07.836Z,11.43
2022-12-12T17:41:35.731Z,12.17
2022-12-12T17:44:05.321Z,12.70
2022-12-12T17:46:33.291Z,14.17
2022-12-12T17:49:01.953Z,12.97
2022-12-12T17:51:30.517Z,12.27
2022-12-12T17:54:00.096Z,13.27
2022-12-12T17:56:28.826Z,12.20
2022-12-12T17:58:57.088Z,14.67
2022-12-12T18:01:28.750Z,14.37
2022-12-12T18:03:57.457Z,13.27
2022-12-12T18:06:26.853Z,14.37
2022-12-12T18:08:55.513Z,14.33
2022-12-12T18:11:26.826Z,15.87
2022-12-12T18:13:57.941Z,13.60
2022-12-12T18:16:29.293Z,14.57
2022-12-12T18:18:57.746Z,14.70
2022-12-12T18:24:16.360Z,14.03
2022-12-12T18:26:44.488Z,14.53
2022-12-12T18:29:14.319Z,15.47
2022-12-12T18:31:43.637Z,13.97
2022-12-12T18:34:11.547Z,12.73
2022-12-12T18:36:39.805Z,14.10
2022-12-12T18:39:08.149Z,13.80
2022-12-12T18:41:37.462Z,16.10
2022-12-12T18:44:07.403Z,12.60
2022-12-12T18:46:42.259Z,13.07
2022-12-12T18:49:13.763Z,13.57
2022-12-12T18:51:42.739Z,13.10
2022-12-12T18:54:15.238Z,13.93
2022-12-12T18:56:44.613Z,12.30
2022-12-12T18:59:13.510Z,12.17
2022-12-12T19:01:42.518Z,11.23
2022-12-12T19:04:17.542Z,11.70
2022-12-12T19:06:49.004Z,11.37
2022-12-12T19:09:19.212Z,12.10
2022-12-12T19:11:48.054Z,11.70
2022-12-12T19:14:17.494Z,12.20
2022-12-12T19:16:46.243Z,12.43
2022-12-12T19:19:15.795Z,11.87
2022-12-12T19:21:44.667Z,12.07
2022-12-12T19:24:13.080Z,12.37
2022-12-12T19:26:43.747Z,12.67
2022-12-12T19:29:13.373Z,11.47
2022-12-12T19:31:41.392Z,12.63
2022-12-12T19:34:11.631Z,12.63
2022-12-12T19:36:41.697Z,12.70
2022-12-12T19:39:11.740Z,12.40
2022-12-12T19:41:39.691Z,14.37
2022-12-12T19:44:12.324Z,14.27
2022-12-12T19:46:42.261Z,15.23
2022-12-12T19:49:12.853Z,15.67
2022-12-12T19:51:44.705Z,14.50
2022-12-12T19:54:14.957Z,12.30
2022-12-12T19:56:43.479Z,12.93
2022-12-12T19:59:12.458Z,13.27
2022-12-12T20:01:41.411Z,12.90
2022-12-12T20:04:14.998Z,11.23
2022-12-12T20:06:45.958Z,12.30
2022-12-12T20:09:15.160Z,12.03
2022-12-12T20:11:45.141Z,13.07
2022-12-12T20:14:14.611Z,14.90
2022-12-12T20:16:42.665Z,14.23
2022-12-12T20:19:10.702Z,14.67
2022-12-12T20:24:29.262Z,22.67
2022-12-12T20:26:59.244Z,16.90
2022-12-12T20:29:27.292Z,14.70
2022-12-12T20:31:55.171Z,16.00
2022-12-12T20:34:24.458Z,16.73
2022-12-12T20:36:54.997Z,16.53
2022-12-12T20:39:24.727Z,16.20
2022-12-12T20:41:56.522Z,17.87
2022-12-12T20:44:25.587Z,12.70
2022-12-12T20:46:54.621Z,13.13
2022-12-12T20:49:24.678Z,15.40
2022-12-12T20:51:55.912Z,19.40
2022-12-12T20:54:26.041Z,23.43
2022-12-12T20:56:55.891Z,20.77
2022-12-12T20:59:24.530Z,16.67
2022-12-12T21:01:52.729Z,16.73
2022-12-12T21:04:20.947Z,16.57
2022-12-12T21:06:49.743Z,13.83
2022-12-12T21:09:24.495Z,15.83
2022-12-12T21:11:55.923Z,15.03
2022-12-12T21:14:24.244Z,14.20
2022-12-12T21:16:52.778Z,13.97
2022-12-12T21:19:21.985Z,18.77
2022-12-12T21:21:50.390Z,15.17
2022-12-12T21:24:19.302Z,12.77
2022-12-12T21:26:47.740Z,13.13
2022-12-12T21:29:17.219Z,11.93
2022-12-12T21:31:51.097Z,11.97
2022-12-12T21:34:20.839Z,14.57
2022-12-12T21:36:51.567Z,13.07
2022-12-12T21:39:19.598Z,11.87
2022-12-12T21:41:47.492Z,16.90
2022-12-12T21:44:16.723Z,10.83
2022-12-12T21:46:44.702Z,11.00
2022-12-12T21:49:27.536Z,11.87
2022-12-12T21:51:57.366Z,12.30
2022-12-12T21:54:25.669Z,11.53
2022-12-12T21:56:53.740Z,11.53
2022-12-12T21:59:24.491Z,12.90
2022-12-12T22:01:53.887Z,11.80
2022-12-12T22:04:21.811Z,12.80
2022-12-12T22:06:49.657Z,11.70
2022-12-12T22:09:17.539Z,12.00
2022-12-12T22:11:49.192Z,11.43
2022-12-12T22:14:22.494Z,11.70
2022-12-12T22:16:50.537Z,11.73
2022-12-12T22:19:18.817Z,13.13
2022-12-12T22:21:48.706Z,12.03
2022-12-12T22:24:17.096Z,11.37
2022-12-12T22:26:46.597Z,11.30
2022-12-12T22:29:16.123Z,10.90
2022-12-12T22:31:46.293Z,10.90
2022-12-12T22:34:16.808Z,10.50
2022-12-12T22:36:45.989Z,10.80
2022-12-12T22:39:16.497Z,10.53
2022-12-12T22:41:44.423Z,10.47
2022-12-12T22:44:15.804Z,9.30
2022-12-12T22:46:46.300Z,10.27
2022-12-12T22:49:15.814Z,11.03
2022-12-12T22:51:44.921Z,9.57
2022-12-12T22:54:13.403Z,10.20
2022-12-12T22:56:42.433Z,9.83
2022-12-12T22:59:12.781Z,10.30
2022-12-12T23:01:41.423Z,10.43
2022-12-12T23:04:13.766Z,10.73
2022-12-12T23:06:43.579Z,10.17
2022-12-12T23:09:15.241Z,10.50
2022-12-12T23:11:43.431Z,10.70
2022-12-12T23:14:15.255Z,10.77
2022-12-12T23:16:43.854Z,10.37
2022-12-12T23:19:16.225Z,10.97
2022-12-12T23:21:44.561Z,10.17
2022-12-12T23:24:12.675Z,9.87
2022-12-12T23:26:40.923Z,10.70
2022-12-12T23:29:12.662Z,10.30
2022-12-12T23:31:40.959Z,10.47
2022-12-12T23:34:14.152Z,10.83
2022-12-12T23:36:43.847Z,10.90
2022-12-12T23:39:12.739Z,10.17
2022-12-12T23:41:40.873Z,9.63
2022-12-12T23:44:09.758Z,9.97
2022-12-12T23:46:37.664Z,10.33
2022-12-12T23:49:07.460Z,9.87
2022-12-12T23:51:37.500Z,9.80
2022-12-12T23:54:08.624Z,9.70
2022-12-12T23:56:38.046Z,9.63
2022-12-12T23:59:06.221Z,9.13
